메인 페이지
METAR-TAF:

METAR-TAF

공항 :

솔트레이크시티 국제공항

솔트레이크시티, 유타, 미국

위도: 40-46-41N, 경도: 111-58-10W, 고도: 1288m

현재 날씨관측

예보는 25분 전, 21:54시(UTC)에 발표되었습니다.
남남동10kt
온도 4°C
습도 75%
기압 1013 hPa
시정: 16.1km
고도 20000ft 상공 흐림

METAR: KSLC 202154Z 15010KT 10SM OVC200 04/00 A2990 RMK AO2 PRESFR SLP125 T00440000

시각: 15:19 (22:19 UTC)

예보

예보는 40분 전, 21:39시(UTC)에 발표되었습니다.
예보 대상 시간: 20일 22시부터 21일 24시까지 (UTC)
남남동10kt
시정: 10km
고도 20000ft 상공 흐림
21일 1000시부터 (UTC)
12kt
시정: 10km
고도 2000ft 상공 구름 보통
고도 4000ft 상공 구름 많음
약한비
21일 1500시부터 (UTC)
북서8kt
시정: 4.8km
고도 1000ft 상공 구름 보통
고도 2500ft 상공 흐림
약한비, 눈, 박무
21일 1700시부터 (UTC)
북북서15kt, 순간 최대 풍속 24kt
시정: 3.2km
고도 1000ft 상공 구름 보통
고도 2000ft 상공 흐림
약한눈, 박무

TAF: KSLC 202139Z 2022/2124 16010KT P6SM OVC200 FM211000 17012KT P6SM -RA SCT020 BKN040 FM211500 32008KT 3SM -RASN BR SCT010 OVC025 FM211700 33015G24KT 2SM -SN BR SCT010 OVC020

4,000개 이상의 공항 관측 자료 및 예보 (METAR 및 TAF 보고).

지도상에서 검색 가능한 기상관측소가 노란 점과 빨간 점으로 표시되어 있습니다.

기상관측소 명을 보려면 표시 위로 마우스를 이동하세요.

날씨 관측과 예보를 보려면 클릭하세요.

지도 변경 : 확대하려면 엑스 표시가 있는 녹색 버튼, 축소하려면 빼기 표시가 있는 녹색 버튼, 다음 페이지의 지도를 보려면 녹색 화살표를 클릭하세요.


METAR-TAF: